Terminal Aerodrome Forecast
Issued by NWS

Home | Current Version | Previous Version | Text Only | Print | Product List | Glossary Off
Versions: 1 2 3 4 5 6 7 8 9 10 11 12 13

000
FTUS43 KIWX 152300
TAFSBN
TAF
KSBN 152340Z 1600/1624 31008KT P6SM FEW050
     FM160200 VRB03KT P6SM FEW250
     FM160900 16009KT P6SM SCT150
     FM161600 16014G23KT P6SM BKN150=

USA.gov is the U.S. government's official web portal to all federal, state and local government web resources and services.